createdAt,value
2023-03-25T00:00:25.702Z,95467.34
2023-03-25T00:01:32.967Z,95471.59
2023-03-25T00:02:35.748Z,95471.75
2023-03-25T00:03:42.073Z,95454.59
2023-03-25T00:04:44.347Z,95454.59
2023-03-25T00:05:49.690Z,95458.91
2023-03-25T00:06:52.226Z,95455.63
2023-03-25T00:07:57.602Z,95462.47
2023-03-25T00:08:59.769Z,95458.34
2023-03-25T00:10:04.493Z,95452.44
2023-03-25T00:11:08.547Z,95462.75
2023-03-25T00:12:13.444Z,95457.53
2023-03-25T00:13:15.694Z,95460.31
2023-03-25T00:14:20.466Z,95468.81
2023-03-25T00:15:24.027Z,95465.41
2023-03-25T00:16:31.481Z,95463.50
2023-03-25T00:17:33.718Z,95472.28
2023-03-25T00:18:40.179Z,95464.66
2023-03-25T00:19:43.368Z,95456.13
2023-03-25T00:20:49.784Z,95470.63
2023-03-25T00:21:52.304Z,95463.81
2023-03-25T00:22:57.462Z,95460.16
2023-03-25T00:23:59.603Z,95467.28
2023-03-25T00:25:04.429Z,95470.78
2023-03-25T00:26:07.672Z,95467.59
2023-03-25T00:27:12.411Z,95475.16
2023-03-25T00:28:15.346Z,95476.97
2023-03-25T00:29:20.265Z,95483.97
2023-03-25T00:30:22.556Z,95489.97
2023-03-25T00:31:27.418Z,95480.69
2023-03-25T00:32:32.259Z,95485.78
2023-03-25T00:33:37.776Z,95483.19
2023-03-25T00:34:42.132Z,95479.84
2023-03-25T00:35:49.604Z,95461.06
2023-03-25T00:36:54.610Z,95462.78
2023-03-25T00:38:00.582Z,95475.00
2023-03-25T00:39:05.480Z,95468.03
2023-03-25T00:40:09.659Z,95485.50
2023-03-25T00:41:17.805Z,95474.22
2023-03-25T00:42:26.586Z,95459.81
2023-03-25T00:43:28.760Z,95462.69
2023-03-25T00:44:34.147Z,95450.53
2023-03-25T00:45:36.449Z,95468.88
2023-03-25T00:46:42.023Z,95462.84
2023-03-25T00:47:47.097Z,95470.56
2023-03-25T00:48:52.901Z,95464.63
2023-03-25T00:49:55.106Z,95474.16
2023-03-25T00:50:59.885Z,95467.41
2023-03-25T00:52:02.122Z,95470.97
2023-03-25T00:53:08.526Z,95459.00
2023-03-25T00:54:11.930Z,95452.19
2023-03-25T00:55:17.447Z,95470.22
2023-03-25T00:56:19.859Z,95450.28
2023-03-25T00:57:25.108Z,95459.91
2023-03-25T00:58:27.221Z,95454.00
2023-03-25T00:59:31.916Z,95454.78
2023-03-25T01:00:34.472Z,95449.00
2023-03-25T01:01:40.910Z,95456.56
2023-03-25T01:02:44.050Z,95450.66
2023-03-25T01:03:57.989Z,95447.28
2023-03-25T01:05:00.385Z,95446.31
2023-03-25T01:06:05.097Z,95444.50
2023-03-25T01:07:08.103Z,95444.66
2023-03-25T01:08:15.010Z,95436.88
2023-03-25T01:09:17.357Z,95443.84
2023-03-25T01:10:22.456Z,95428.22
2023-03-25T01:11:27.178Z,95438.53
2023-03-25T01:12:31.927Z,95436.09
2023-03-25T01:13:34.103Z,95438.53
2023-03-25T01:14:38.922Z,95446.88
2023-03-25T01:15:41.352Z,95443.47
2023-03-25T01:16:46.929Z,95439.31
2023-03-25T01:17:49.236Z,95449.66
2023-03-25T01:18:56.877Z,95444.66
2023-03-25T01:19:59.227Z,95440.19
2023-03-25T01:21:03.985Z,95432.59
2023-03-25T01:22:07.973Z,95432.75
2023-03-25T01:23:12.742Z,95431.97
2023-03-25T01:24:15.555Z,95420.06
2023-03-25T01:25:20.585Z,95426.28
2023-03-25T01:26:22.709Z,95430.75
2023-03-25T01:27:27.503Z,95435.13
2023-03-25T01:28:29.848Z,95431.72
2023-03-25T01:29:35.051Z,95430.91
2023-03-25T01:30:37.246Z,95429.34
2023-03-25T01:31:42.114Z,95427.56
2023-03-25T01:32:44.828Z,95422.53
2023-03-25T01:33:49.536Z,95423.38
2023-03-25T01:34:54.317Z,95428.53
2023-03-25T01:35:59.235Z,95427.84
2023-03-25T01:37:01.347Z,95427.06
2023-03-25T01:38:06.393Z,95425.47
2023-03-25T01:39:09.355Z,95430.75
2023-03-25T01:40:21.293Z,95419.75
2023-03-25T01:41:23.630Z,95431.59
2023-03-25T01:42:28.418Z,95424.91
2023-03-25T01:43:30.810Z,95412.19
2023-03-25T01:45:06.605Z,95430.41
2023-03-25T01:46:14.490Z,95412.25
2023-03-25T01:47:19.995Z,95415.00
2023-03-25T01:48:28.615Z,95402.38
2023-03-25T01:49:33.746Z,95417.09
2023-03-25T01:50:45.499Z,95406.09
2023-03-25T01:51:51.510Z,95408.97
2023-03-25T01:52:56.373Z,95406.56
2023-03-25T01:53:58.743Z,95406.72
2023-03-25T01:55:03.595Z,95409.28
2023-03-25T01:56:09.007Z,95413.59
2023-03-25T01:57:18.504Z,95406.72
2023-03-25T01:58:23.021Z,95400.94
2023-03-25T01:59:30.697Z,95400.47
2023-03-25T02:00:32.867Z,95400.78
2023-03-25T02:01:37.659Z,95399.81
2023-03-25T02:02:40.571Z,95400.69
2023-03-25T02:03:51.442Z,95395.66
2023-03-25T02:05:02.628Z,95408.47
2023-03-25T02:06:15.237Z,95407.69
2023-03-25T02:07:18.920Z,95412.63
2023-03-25T02:08:25.921Z,95412.50
2023-03-25T02:09:28.341Z,95402.06
2023-03-25T02:10:33.499Z,95406.44
2023-03-25T02:11:36.421Z,95401.28
2023-03-25T02:12:41.819Z,95396.91
2023-03-25T02:13:46.641Z,95403.84
2023-03-25T02:14:48.868Z,95402.16
2023-03-25T02:16:17.871Z,95398.47
2023-03-25T02:17:30.619Z,95394.06
2023-03-25T02:18:44.980Z,95396.28
2023-03-25T02:20:19.511Z,95395.97
2023-03-25T02:22:06.087Z,95394.28
2023-03-25T02:23:48.193Z,95400.19
2023-03-25T02:25:23.436Z,95390.94
2023-03-25T02:27:00.048Z,95397.63
2023-03-25T02:28:12.775Z,95391.69
2023-03-25T02:29:26.914Z,95395.31
2023-03-25T02:30:54.988Z,95391.84
2023-03-25T02:32:17.257Z,95398.72
2023-03-25T02:33:55.581Z,95390.94
2023-03-25T02:35:16.396Z,95396.16
2023-03-25T02:36:50.955Z,95384.25
2023-03-25T02:38:19.512Z,95399.84
2023-03-25T02:39:33.297Z,95392.91
2023-03-25T02:40:42.640Z,95398.88
2023-03-25T02:41:55.548Z,95398.03
2023-03-25T02:43:05.977Z,95395.19
2023-03-25T02:44:17.105Z,95405.63
2023-03-25T02:45:26.157Z,95403.88
2023-03-25T02:46:33.517Z,95405.81
2023-03-25T02:47:42.799Z,95421.06
2023-03-25T02:48:54.413Z,95413.50
2023-03-25T02:49:58.864Z,95408.34
2023-03-25T02:51:10.485Z,95403.34
2023-03-25T02:52:15.114Z,95412.72
2023-03-25T02:53:24.469Z,95421.22
2023-03-25T02:54:33.681Z,95406.69
2023-03-25T02:55:41.642Z,95411.84
2023-03-25T02:56:47.532Z,95405.63
2023-03-25T02:57:57.368Z,95394.41
2023-03-25T02:59:01.340Z,95401.25
2023-03-25T03:00:15.422Z,95396.16
2023-03-25T03:01:17.784Z,95395.97
2023-03-25T03:02:25.840Z,95403.81
2023-03-25T03:03:29.157Z,95400.47
2023-03-25T03:04:33.916Z,95398.59
2023-03-25T03:05:39.785Z,95396.78
2023-03-25T03:06:46.512Z,95405.47
2023-03-25T03:07:53.967Z,95396.09
2023-03-25T03:09:14.300Z,95404.84
2023-03-25T03:10:22.495Z,95404.84
2023-03-25T03:11:31.126Z,95404.03
2023-03-25T03:12:47.614Z,95399.78
2023-03-25T03:14:07.371Z,95398.97
2023-03-25T03:15:24.421Z,95397.91
2023-03-25T03:16:34.117Z,95396.25
2023-03-25T03:17:46.420Z,95398.88
2023-03-25T03:18:58.826Z,95400.47
2023-03-25T03:20:10.153Z,95398.81
2023-03-25T03:21:17.039Z,95400.28
2023-03-25T03:22:37.250Z,95413.22
2023-03-25T03:23:51.710Z,95402.13
2023-03-25T03:25:04.030Z,95415.88
2023-03-25T03:26:17.885Z,95405.34
2023-03-25T03:27:34.140Z,95412.25
2023-03-25T03:28:48.098Z,95419.19
2023-03-25T03:29:54.958Z,95420.16
2023-03-25T03:31:07.140Z,95432.16
2023-03-25T03:32:13.898Z,95442.72
2023-03-25T03:33:25.709Z,95444.53
2023-03-25T03:34:32.828Z,95449.94
2023-03-25T03:35:41.054Z,95449.59
2023-03-25T03:36:47.287Z,95460.53
2023-03-25T03:37:58.406Z,95434.41
2023-03-25T03:39:07.463Z,95433.97
2023-03-25T03:40:17.472Z,95438.25
2023-03-25T03:41:27.305Z,95452.16
2023-03-25T03:42:37.667Z,95462.72
2023-03-25T03:43:43.337Z,95452.22
2023-03-25T03:44:54.228Z,95457.44
2023-03-25T03:46:00.331Z,95460.84
2023-03-25T03:47:07.416Z,95464.56
2023-03-25T03:48:16.263Z,95459.53
2023-03-25T03:49:26.508Z,95470.00
2023-03-25T03:50:31.964Z,95464.03
2023-03-25T03:51:41.727Z,95462.41
2023-03-25T03:52:51.695Z,95462.28
2023-03-25T03:54:01.822Z,95459.78
2023-03-25T03:55:10.985Z,95453.94
2023-03-25T03:56:22.133Z,95459.31
2023-03-25T03:57:30.560Z,95456.03
2023-03-25T03:58:43.223Z,95458.69
2023-03-25T03:59:53.791Z,95463.75
2023-03-25T04:01:06.754Z,95455.19
2023-03-25T04:02:17.380Z,95459.38
2023-03-25T04:03:28.580Z,95456.09
2023-03-25T04:04:31.886Z,95458.72
2023-03-25T04:05:38.760Z,95470.78
2023-03-25T04:06:44.249Z,95477.66
2023-03-25T04:07:55.168Z,95482.81
2023-03-25T04:10:15.037Z,95482.75
2023-03-25T04:11:25.132Z,95493.91
2023-03-25T04:12:32.716Z,95490.16
2023-03-25T04:13:40.548Z,95495.19
2023-03-25T04:14:43.461Z,95492.72
2023-03-25T04:15:48.577Z,95490.16
2023-03-25T04:16:53.318Z,95486.56
2023-03-25T04:17:58.091Z,95493.38
2023-03-25T04:19:00.181Z,95489.81
2023-03-25T04:20:08.996Z,95496.34
2023-03-25T04:23:10.063Z,95498.03
2023-03-25T04:24:12.263Z,95506.63
2023-03-25T04:25:17.194Z,95502.41
2023-03-25T04:26:20.103Z,95498.94
2023-03-25T04:27:29.971Z,95498.25
2023-03-25T04:28:36.978Z,95500.97
2023-03-25T04:29:44.148Z,95498.50
2023-03-25T04:30:46.699Z,95502.91
2023-03-25T04:31:54.962Z,95507.38
2023-03-25T04:32:57.455Z,95504.94
2023-03-25T04:34:02.870Z,95494.66
2023-03-25T04:35:05.680Z,95493.88
2023-03-25T04:36:11.938Z,95498.34
2023-03-25T04:37:16.841Z,95495.06
2023-03-25T04:38:19.551Z,95498.50
2023-03-25T04:39:25.893Z,95494.16
2023-03-25T04:40:28.035Z,95494.88
2023-03-25T04:41:33.849Z,95503.44
2023-03-25T04:42:37.532Z,95514.66
2023-03-25T04:43:45.427Z,95506.13
2023-03-25T04:44:47.525Z,95507.00
2023-03-25T04:45:55.298Z,95506.06
2023-03-25T04:46:58.038Z,95502.56
2023-03-25T04:48:06.187Z,95500.25
2023-03-25T04:49:14.461Z,95509.41
2023-03-25T04:50:23.351Z,95507.63
2023-03-25T04:51:25.524Z,95504.81
2023-03-25T04:52:30.635Z,95502.91
2023-03-25T04:53:32.996Z,95495.19
2023-03-25T04:54:38.656Z,95498.59
2023-03-25T04:55:48.339Z,95487.34
2023-03-25T04:56:55.114Z,95492.50
2023-03-25T04:57:57.469Z,95494.19
2023-03-25T04:59:04.766Z,95493.25
2023-03-25T05:00:11.760Z,95496.72
2023-03-25T05:01:24.424Z,95494.94
2023-03-25T05:02:27.303Z,95486.44
2023-03-25T05:03:32.015Z,95497.63
2023-03-25T05:04:34.467Z,95500.44
2023-03-25T05:05:39.281Z,95503.13
2023-03-25T05:06:43.708Z,95500.66
2023-03-25T05:07:49.943Z,95504.16
2023-03-25T05:08:52.092Z,95499.97
2023-03-25T05:09:57.368Z,95509.28
2023-03-25T05:10:59.514Z,95504.38
2023-03-25T05:12:04.324Z,95503.59
2023-03-25T05:13:08.393Z,95509.66
2023-03-25T05:14:18.349Z,95512.34
2023-03-25T05:15:20.570Z,95496.84
2023-03-25T05:16:25.856Z,95504.72
2023-03-25T05:17:30.076Z,95505.88
2023-03-25T05:18:34.890Z,95508.56
2023-03-25T05:19:37.063Z,95505.31
2023-03-25T05:20:43.350Z,95511.38
2023-03-25T05:21:45.671Z,95512.22
2023-03-25T05:22:50.396Z,95514.66
2023-03-25T05:23:52.949Z,95514.28
2023-03-25T05:24:57.630Z,95512.38
2023-03-25T05:26:00.198Z,95517.41
2023-03-25T05:27:04.957Z,95521.81
2023-03-25T05:28:10.085Z,95515.91
2023-03-25T05:29:19.426Z,95515.84
2023-03-25T05:30:21.707Z,95527.91
2023-03-25T05:31:26.383Z,95528.03
2023-03-25T05:32:30.328Z,95525.50
2023-03-25T05:33:35.231Z,95527.22
2023-03-25T05:34:38.842Z,95523.84
2023-03-25T05:35:43.740Z,95527.22
2023-03-25T05:36:46.080Z,95522.94
2023-03-25T05:37:51.724Z,95523.84
2023-03-25T05:38:54.722Z,95527.22
2023-03-25T05:39:59.521Z,95529.69
2023-03-25T05:41:01.694Z,95521.81
2023-03-25T05:42:06.518Z,95530.25
2023-03-25T05:43:08.812Z,95528.50
2023-03-25T05:44:14.917Z,95534.28
2023-03-25T05:45:19.903Z,95522.19
2023-03-25T05:46:24.726Z,95514.44
2023-03-25T05:47:29.277Z,95530.50
2023-03-25T05:48:35.978Z,95531.25
2023-03-25T05:49:38.078Z,95525.13
2023-03-25T05:50:43.432Z,95535.25
2023-03-25T05:51:46.046Z,95534.38
2023-03-25T05:52:52.609Z,95536.91
2023-03-25T05:53:54.831Z,95542.75
2023-03-25T05:54:59.571Z,95535.81
2023-03-25T05:56:01.732Z,95531.25
2023-03-25T05:57:06.710Z,95529.44
2023-03-25T05:58:08.865Z,95536.25
2023-03-25T05:59:14.648Z,95529.31
2023-03-25T06:00:23.414Z,95539.59
2023-03-25T06:01:33.111Z,95541.09
2023-03-25T06:02:39.001Z,95533.16
2023-03-25T06:03:44.129Z,95531.44
2023-03-25T06:04:50.774Z,95533.13
2023-03-25T06:05:56.782Z,95536.53
2023-03-25T06:06:59.049Z,95526.09
2023-03-25T06:08:04.050Z,95529.47
2023-03-25T06:09:07.260Z,95532.03
2023-03-25T06:10:17.358Z,95528.50
2023-03-25T06:11:20.818Z,95529.19
2023-03-25T06:12:27.801Z,95530.00
2023-03-25T06:13:34.283Z,95529.78
2023-03-25T06:14:36.414Z,95527.09
2023-03-25T06:15:44.816Z,95521.75
2023-03-25T06:16:47.373Z,95518.41
2023-03-25T06:17:52.173Z,95519.13
2023-03-25T06:18:56.618Z,95517.56
2023-03-25T06:20:05.920Z,95522.59
2023-03-25T06:21:08.897Z,95519.97
2023-03-25T06:22:14.696Z,95519.84
2023-03-25T06:23:16.926Z,95530.13
2023-03-25T06:24:22.399Z,95530.78
2023-03-25T06:25:28.677Z,95533.47
2023-03-25T06:26:33.488Z,95536.50
2023-03-25T06:27:40.655Z,95528.75
2023-03-25T06:28:46.328Z,95534.38
2023-03-25T06:29:48.833Z,95536.16
2023-03-25T06:30:57.349Z,95535.34
2023-03-25T06:31:59.536Z,95543.25
2023-03-25T06:33:06.277Z,95542.84
2023-03-25T06:34:08.477Z,95545.56
2023-03-25T06:35:18.461Z,95547.81
2023-03-25T06:36:20.865Z,95546.81
2023-03-25T06:37:26.200Z,95540.88
2023-03-25T06:38:30.257Z,95544.16
2023-03-25T06:39:38.161Z,95555.13
2023-03-25T06:40:43.045Z,95543.88
2023-03-25T06:41:45.260Z,95546.53
2023-03-25T06:42:50.052Z,95547.19
2023-03-25T06:43:52.349Z,95549.63
2023-03-25T06:44:57.568Z,95541.81
2023-03-25T06:46:02.463Z,95554.69
2023-03-25T06:47:07.666Z,95559.91
2023-03-25T06:48:09.950Z,95555.72
2023-03-25T06:49:14.723Z,95549.47
2023-03-25T06:50:16.853Z,95560.75
2023-03-25T06:51:22.876Z,95564.84
2023-03-25T06:52:25.083Z,95570.44
2023-03-25T06:53:29.999Z,95555.88
2023-03-25T06:54:32.301Z,95564.47
2023-03-25T06:55:37.027Z,95558.31
2023-03-25T06:56:39.337Z,95556.38
2023-03-25T06:57:44.717Z,95554.41
2023-03-25T06:58:47.094Z,95546.00
2023-03-25T06:59:51.914Z,95558.81
2023-03-25T07:00:54.953Z,95551.16
2023-03-25T07:02:02.463Z,95548.44
2023-03-25T07:03:07.453Z,95552.75
2023-03-25T07:04:12.262Z,95556.16
2023-03-25T07:05:14.505Z,95554.38
2023-03-25T07:06:21.978Z,95554.38
2023-03-25T07:07:24.097Z,95563.97
2023-03-25T07:08:28.838Z,95551.84
2023-03-25T07:09:30.977Z,95556.84
2023-03-25T07:10:35.710Z,95557.16
2023-03-25T07:11:37.998Z,95554.25
2023-03-25T07:12:42.749Z,95553.78
2023-03-25T07:13:44.848Z,95557.84
2023-03-25T07:14:54.144Z,95551.47
2023-03-25T07:15:56.780Z,95550.47
2023-03-25T07:17:04.180Z,95559.78
2023-03-25T07:18:06.481Z,95553.19
2023-03-25T07:19:11.380Z,95554.16
2023-03-25T07:20:15.840Z,95561.59
2023-03-25T07:21:22.153Z,95554.91
2023-03-25T07:22:24.419Z,95555.13
2023-03-25T07:23:29.588Z,95550.66
2023-03-25T07:24:31.864Z,95549.81
2023-03-25T07:25:37.228Z,95545.22
2023-03-25T07:26:39.397Z,95553.53
2023-03-25T07:27:44.310Z,95552.66
2023-03-25T07:28:48.201Z,95536.16
2023-03-25T07:29:53.074Z,95537.19
2023-03-25T07:30:55.151Z,95546.41
2023-03-25T07:31:59.930Z,95536.50
2023-03-25T07:33:04.806Z,95537.63
2023-03-25T07:34:09.587Z,95545.13
2023-03-25T07:35:11.947Z,95539.88
2023-03-25T07:36:16.915Z,95540.53
2023-03-25T07:37:18.982Z,95533.69
2023-03-25T07:38:23.724Z,95529.31
2023-03-25T07:39:25.958Z,95531.00
2023-03-25T07:40:30.632Z,95537.69
2023-03-25T07:41:32.724Z,95538.97
2023-03-25T07:42:39.181Z,95546.69
2023-03-25T07:43:42.123Z,95532.38
2023-03-25T07:44:46.862Z,95541.16
2023-03-25T07:45:51.588Z,95539.34
2023-03-25T07:46:53.845Z,95536.13
2023-03-25T07:47:58.761Z,95542.84
2023-03-25T07:49:03.619Z,95556.03
2023-03-25T07:50:09.845Z,95548.44
2023-03-25T07:51:14.572Z,95544.84
2023-03-25T07:52:16.706Z,95542.22
2023-03-25T07:53:21.899Z,95543.94
2023-03-25T07:54:24.665Z,95557.19
2023-03-25T07:55:29.416Z,95552.19
2023-03-25T07:56:31.612Z,95558.09
2023-03-25T07:57:36.284Z,95547.25
2023-03-25T07:58:38.680Z,95540.34
2023-03-25T07:59:43.519Z,95540.84
2023-03-25T08:00:45.944Z,95556.22
2023-03-25T08:01:50.992Z,95553.91
2023-03-25T08:02:53.188Z,95553.56
2023-03-25T08:03:58.041Z,95559.69
2023-03-25T08:05:06.051Z,95558.38
2023-03-25T08:06:11.825Z,95561.38
2023-03-25T08:07:14.010Z,95557.75
2023-03-25T08:08:18.997Z,95559.03
2023-03-25T08:09:23.815Z,95544.78
2023-03-25T08:10:26.921Z,95549.78
2023-03-25T08:11:33.193Z,95544.50
2023-03-25T08:12:37.612Z,95551.88
2023-03-25T08:13:42.547Z,95544.59
2023-03-25T08:14:44.665Z,95545.81
2023-03-25T08:15:49.787Z,95542.34
2023-03-25T08:16:52.152Z,95542.41
2023-03-25T08:17:57.868Z,95541.13
2023-03-25T08:19:00.147Z,95536.88
2023-03-25T08:20:09.545Z,95541.59
2023-03-25T08:21:11.875Z,95533.56
2023-03-25T08:22:16.639Z,95537.03
2023-03-25T08:23:20.229Z,95533.16
2023-03-25T08:24:27.069Z,95541.75
2023-03-25T08:25:29.814Z,95523.97
2023-03-25T08:26:35.233Z,95531.41
2023-03-25T08:27:37.403Z,95528.19
2023-03-25T08:28:42.136Z,95528.66
2023-03-25T08:29:44.330Z,95528.81
2023-03-25T08:30:49.607Z,95519.50
2023-03-25T08:31:53.722Z,95528.09
2023-03-25T08:32:58.494Z,95522.38
2023-03-25T08:35:38.257Z,95531.63
2023-03-25T08:36:40.443Z,95524.72
2023-03-25T08:37:45.168Z,95507.22
2023-03-25T08:38:47.532Z,95520.56
2023-03-25T08:39:52.222Z,95527.31
2023-03-25T08:40:54.373Z,95525.22
2023-03-25T08:41:59.473Z,95526.84
2023-03-25T08:43:03.652Z,95513.75
2023-03-25T08:44:08.877Z,95520.41
2023-03-25T08:45:12.134Z,95525.25
2023-03-25T08:46:17.128Z,95510.16
2023-03-25T08:47:19.371Z,95514.06
2023-03-25T08:48:25.075Z,95511.31
2023-03-25T08:49:29.788Z,95513.25
2023-03-25T08:50:34.547Z,95513.41
2023-03-25T08:51:39.284Z,95514.53
2023-03-25T08:52:42.244Z,95520.75
2023-03-25T08:53:46.953Z,95519.41
2023-03-25T08:54:49.212Z,95523.41
2023-03-25T08:55:55.732Z,95500.53
2023-03-25T08:56:58.074Z,95511.19
2023-03-25T08:58:05.114Z,95508.69
2023-03-25T08:59:09.808Z,95509.88
2023-03-25T09:00:13.399Z,95512.94
2023-03-25T09:01:18.140Z,95495.63
2023-03-25T09:02:20.713Z,95494.44
2023-03-25T09:03:27.252Z,95498.06
2023-03-25T09:04:29.652Z,95490.09
2023-03-25T09:05:39.811Z,95497.59
2023-03-25T09:06:47.541Z,95484.44
2023-03-25T09:07:53.384Z,95501.38
2023-03-25T09:08:58.934Z,95495.16
2023-03-25T09:10:04.217Z,95511.69
2023-03-25T09:11:09.493Z,95504.16
2023-03-25T09:12:11.824Z,95508.69
2023-03-25T09:13:16.686Z,95488.66
2023-03-25T09:14:18.886Z,95510.63
2023-03-25T09:15:24.054Z,95502.53
2023-03-25T09:16:26.382Z,95500.72
2023-03-25T09:17:31.159Z,95501.56
2023-03-25T09:18:33.309Z,95500.53
2023-03-25T09:19:38.183Z,95505.88
2023-03-25T09:20:47.860Z,95499.31
2023-03-25T09:21:52.562Z,95510.28
2023-03-25T09:22:54.863Z,95520.53
2023-03-25T09:23:59.571Z,95519.88
2023-03-25T09:25:01.790Z,95515.63
2023-03-25T09:26:06.779Z,95506.81
2023-03-25T09:27:09.404Z,95520.34
2023-03-25T09:28:14.783Z,95507.34
2023-03-25T09:29:17.235Z,95527.75
2023-03-25T09:30:22.138Z,95526.31
2023-03-25T09:31:24.632Z,95523.34
2023-03-25T09:32:29.523Z,95526.22
2023-03-25T09:33:32.025Z,95534.66
2023-03-25T09:34:38.342Z,95537.09
2023-03-25T09:35:43.153Z,95522.75
2023-03-25T09:36:48.278Z,95534.75
2023-03-25T09:37:53.028Z,95544.38
2023-03-25T09:38:55.209Z,95525.50
2023-03-25T09:40:00.306Z,95540.06
2023-03-25T09:41:05.532Z,95529.75
2023-03-25T09:42:28.088Z,95523.81
2023-03-25T09:43:42.850Z,95527.84
2023-03-25T09:44:55.700Z,95527.34
2023-03-25T09:46:02.928Z,95519.84
2023-03-25T09:47:06.131Z,95524.75
2023-03-25T09:48:27.812Z,95499.66
2023-03-25T09:49:39.216Z,95495.06
2023-03-25T09:50:48.361Z,95502.91
2023-03-25T09:53:07.985Z,95506.88
2023-03-25T09:54:23.437Z,95500.56
2023-03-25T09:55:29.106Z,95501.72
2023-03-25T09:56:42.166Z,95499.19
2023-03-25T09:57:49.340Z,95498.94
2023-03-25T09:58:57.303Z,95500.97
2023-03-25T10:00:02.203Z,95495.25
2023-03-25T10:01:31.506Z,95495.66
2023-03-25T10:02:43.307Z,95503.81
2023-03-25T10:03:56.020Z,95504.47
2023-03-25T10:05:40.268Z,95500.38
2023-03-25T10:06:54.824Z,95503.03
2023-03-25T10:08:13.660Z,95503.22
2023-03-25T10:09:34.750Z,95501.38
2023-03-25T10:10:46.288Z,95514.34
2023-03-25T10:11:58.427Z,95513.22
2023-03-25T10:13:15.104Z,95512.22
2023-03-25T10:14:25.178Z,95511.53
2023-03-25T10:15:32.698Z,95517.22
2023-03-25T10:16:51.354Z,95522.41
2023-03-25T10:18:07.774Z,95510.91
2023-03-25T10:19:27.935Z,95517.91
2023-03-25T10:20:42.404Z,95502.16
2023-03-25T10:21:55.947Z,95508.19
2023-03-25T10:23:07.835Z,95497.28
2023-03-25T10:24:21.438Z,95499.78
2023-03-25T10:25:27.667Z,95495.34
2023-03-25T10:26:39.572Z,95494.41
2023-03-25T10:27:44.963Z,95497.44
2023-03-25T10:28:54.599Z,95477.72
2023-03-25T10:30:01.480Z,95472.16
2023-03-25T10:31:08.831Z,95491.50
2023-03-25T10:32:17.116Z,95475.41
2023-03-25T10:33:32.013Z,95492.53
2023-03-25T10:34:40.695Z,95482.78
2023-03-25T10:35:49.004Z,95455.69
2023-03-25T10:36:57.908Z,95481.88
2023-03-25T10:38:13.904Z,95470.22
2023-03-25T10:39:25.482Z,95468.25
2023-03-25T10:40:49.376Z,95475.59
2023-03-25T10:45:49.112Z,95454.13
2023-03-25T10:47:06.057Z,95460.41
2023-03-25T10:48:14.469Z,95459.94
2023-03-25T10:49:22.265Z,95462.91
2023-03-25T10:50:28.012Z,95441.91
2023-03-25T10:51:32.650Z,95478.47
2023-03-25T10:52:40.192Z,95470.97
2023-03-25T10:53:45.450Z,95454.97
2023-03-25T10:58:20.509Z,95421.00
2023-03-25T10:59:42.028Z,95436.19
2023-03-25T11:00:44.678Z,95423.31
2023-03-25T11:01:51.363Z,95430.09
2023-03-25T11:02:58.966Z,95435.75
2023-03-25T11:04:04.249Z,95434.97
2023-03-25T11:05:13.273Z,95458.34
2023-03-25T11:06:24.804Z,95441.88
2023-03-25T11:07:33.830Z,95422.03
2023-03-25T11:08:58.693Z,95439.66
2023-03-25T11:10:20.607Z,95453.25
2023-03-25T11:11:32.882Z,95436.06
2023-03-25T11:12:43.331Z,95451.84
2023-03-25T11:13:49.879Z,95427.44
2023-03-25T11:14:57.547Z,95434.41
2023-03-25T11:16:06.904Z,95438.03
2023-03-25T11:17:15.586Z,95446.06
2023-03-25T11:18:29.086Z,95438.84
2023-03-25T11:19:37.413Z,95440.34
2023-03-25T11:20:52.044Z,95442.06
2023-03-25T11:21:58.883Z,95436.72
2023-03-25T11:23:11.969Z,95447.00
2023-03-25T11:24:20.577Z,95434.22
2023-03-25T11:25:30.002Z,95451.16
2023-03-25T11:26:39.316Z,95449.03
2023-03-25T11:27:49.734Z,95448.28
2023-03-25T11:28:59.328Z,95438.78
2023-03-25T11:30:05.684Z,95442.28
2023-03-25T11:31:18.630Z,95443.03
2023-03-25T11:33:01.651Z,95432.72
2023-03-25T11:34:08.021Z,95445.66
2023-03-25T11:35:31.135Z,95444.66
2023-03-25T11:36:41.825Z,95465.72
2023-03-25T11:37:51.449Z,95464.72
2023-03-25T11:39:01.094Z,95485.47
2023-03-25T11:40:21.265Z,95481.22
2023-03-25T11:41:24.210Z,95473.50
2023-03-25T11:42:35.274Z,95486.03
2023-03-25T11:43:39.086Z,95481.09
2023-03-25T11:44:44.411Z,95475.19
2023-03-25T11:45:46.837Z,95476.44
2023-03-25T11:46:55.485Z,95478.69
2023-03-25T11:48:03.284Z,95460.13
2023-03-25T11:49:10.188Z,95466.63
2023-03-25T11:50:24.585Z,95479.91
2023-03-25T11:51:30.184Z,95470.94
2023-03-25T11:52:42.645Z,95458.75
2023-03-25T11:53:50.059Z,95451.25
2023-03-25T11:54:54.155Z,95455.59
2023-03-25T11:56:10.829Z,95458.00
2023-03-25T11:57:16.684Z,95465.31
2023-03-25T11:58:25.050Z,95471.91
2023-03-25T11:59:38.330Z,95457.63
2023-03-25T12:00:42.377Z,95454.84
2023-03-25T12:01:50.157Z,95457.75
2023-03-25T12:03:01.078Z,95470.78
2023-03-25T12:04:15.051Z,95446.72
2023-03-25T12:05:17.664Z,95448.66
2023-03-25T12:06:24.556Z,95454.31
2023-03-25T12:07:29.510Z,95448.00
2023-03-25T12:08:46.480Z,95438.66
2023-03-25T12:09:56.674Z,95438.66
2023-03-25T12:11:09.353Z,95441.44
2023-03-25T12:12:49.759Z,95448.38
2023-03-25T12:14:29.950Z,95450.22
2023-03-25T12:15:41.826Z,95439.72
2023-03-25T12:16:49.914Z,95438.03
2023-03-25T12:18:10.792Z,95443.47
2023-03-25T12:19:24.171Z,95436.16
2023-03-25T12:20:34.431Z,95449.84
2023-03-25T12:21:56.471Z,95452.44
2023-03-25T12:23:02.032Z,95441.22
2023-03-25T12:24:28.145Z,95435.75
2023-03-25T12:25:50.334Z,95446.88
2023-03-25T12:27:14.675Z,95432.19
2023-03-25T12:28:40.342Z,95427.75
2023-03-25T12:29:51.832Z,95435.25
2023-03-25T12:31:04.692Z,95429.81
2023-03-25T12:32:20.597Z,95430.09
2023-03-25T12:33:40.901Z,95444.47
2023-03-25T12:34:57.708Z,95429.13
2023-03-25T12:36:18.293Z,95432.25
2023-03-25T12:37:33.572Z,95435.47
2023-03-25T12:38:48.679Z,95434.81
2023-03-25T12:40:11.182Z,95438.31
2023-03-25T12:41:20.505Z,95446.69
2023-03-25T12:42:38.923Z,95445.19
2023-03-25T12:44:00.563Z,95451.97
2023-03-25T12:45:50.082Z,95437.81
2023-03-25T12:47:18.160Z,95431.91
2023-03-25T12:48:41.920Z,95449.53
2023-03-25T12:50:09.873Z,95439.19
2023-03-25T12:51:22.812Z,95429.19
2023-03-25T12:52:37.514Z,95422.22
2023-03-25T12:53:53.453Z,95425.13
2023-03-25T12:55:09.089Z,95428.03
2023-03-25T12:56:29.424Z,95431.16
2023-03-25T12:57:50.725Z,95431.03
2023-03-25T12:59:18.784Z,95424.25
2023-03-25T13:00:36.018Z,95427.13
2023-03-25T13:01:49.830Z,95433.00
2023-03-25T13:03:26.824Z,95438.94
2023-03-25T13:05:02.107Z,95428.00
2023-03-25T13:06:19.112Z,95435.97
2023-03-25T13:07:28.792Z,95442.63
2023-03-25T13:08:36.053Z,95437.00
2023-03-25T13:09:55.134Z,95411.38
2023-03-25T13:11:03.002Z,95429.75
2023-03-25T13:12:15.114Z,95420.09
2023-03-25T13:13:24.547Z,95459.13
2023-03-25T13:14:33.814Z,95453.84
2023-03-25T13:15:40.597Z,95436.19
2023-03-25T13:16:46.911Z,95463.91
2023-03-25T13:17:57.133Z,95463.41
2023-03-25T13:19:08.494Z,95465.84
2023-03-25T13:20:11.761Z,95457.91
2023-03-25T13:21:21.955Z,95500.78
2023-03-25T13:22:32.174Z,95463.25
2023-03-25T13:23:36.977Z,95433.69
2023-03-25T13:24:47.418Z,95441.69
2023-03-25T13:25:54.543Z,95458.03
2023-03-25T13:27:00.888Z,95444.59
2023-03-25T13:28:09.959Z,95443.00
2023-03-25T13:29:27.929Z,95512.38
2023-03-25T13:30:37.761Z,95427.97
2023-03-25T13:32:10.998Z,95448.78